Aérodrome :
LOGIN :

S'inscrire | Disclaimer

   EN    FR    IT 

 










Légende :    VFR   VFR Marginal   IFR   IFR Intensif   IFR Très Intensif
Visi : 
Plafond : 
>= 8 km
>= 3000ft
5 à 8 km
1000 à 3000 ft
1500m à 5 km
500 à 1000 ft
800 à 1500m
200 à 500 ft
< 800m
< 200 ft
Symboles :   Orages  Brouillard  Fortes neiges  Fortes précipitations  Vent > 20 kt
SIGMETs :   Divers  Orages  Givrage  Turbulence  Onde Orograph.  Cendres Volcan.







- Altitude de l'aérodrome : 1649 ft
- Code IATA : HHN


EDFH - Frankfurt-Hahn Rhineland-Palatinate

DERNIER METAR :
  • 192250Z 17009KT CAVOK 14/05 Q1012

METARs EXPIRÉS :
  • 192220Z 17011KT CAVOK 14/06 Q1012
  • 192150Z 15012KT CAVOK 14/07 Q1012
  • 192120Z 15011KT CAVOK 13/08 Q1012
  • 192050Z 16011KT CAVOK 15/07 Q1012
  • 192020Z 16011KT CAVOK 15/07 Q1012

TAF TAF EDFH
Valide du 19 à 18h jusqu'au 20 à 18h UTC


191700Z 1918/2018 17008KT CAVOK
BECMG 2008/2010 23012KT
TEMPO 2008/2011 4000 RA BKN012
PROB30
TEMPO 2008/2011 BKN005
TEMPO 2009/2016 24015G25KT
Pas de NOTAMs connus pour ce terrain.



MET'MAP, la Météo Aéronautique d'un coup d'oeil ! - Copyright ORBIFLY Décembre 2007 - Disclaimer

ORBIFLY MET'MAP TEAM :

Programmation & Développement : Alexandra Zaïnal
Conception & Développement : Baudouin d'Aumeries
Co-Programmation & Développement : Marc-Olivier Méhu
Soutien technique & logistique : Manuel Goepfert

Contact : metmap@orbifly.com




SOURCES & CREDITS :

   NOAA